createdAt,value
2019-01-19T00:02:05.326Z,101874.58
2019-01-19T00:05:11.108Z,101872.92
2019-01-19T00:07:45.699Z,101654.92
2019-01-19T00:10:31.607Z,101871.98
2019-01-19T00:13:25.533Z,101869.80
2019-01-19T00:16:05.784Z,101867.14
2019-01-19T00:18:43.055Z,101866.63
2019-01-19T00:21:43.423Z,101864.33
2019-01-19T00:24:41.724Z,101867.63
2019-01-19T00:27:13.355Z,101861.39
2019-01-19T00:29:50.388Z,101864.23
2019-01-19T00:32:27.749Z,101865.53
2019-01-19T00:35:17.932Z,101863.98
2019-01-19T00:37:50.162Z,101869.27
2019-01-19T00:40:52.049Z,101866.44
2019-01-19T00:43:20.661Z,101870.41
2019-01-19T00:46:01.159Z,101864.49
2019-01-19T00:48:35.440Z,101863.49
2019-01-19T00:51:24.964Z,101865.75
2019-01-19T00:54:08.413Z,101860.17
2019-01-19T00:56:45.160Z,101861.49
2019-01-19T00:59:16.799Z,101870.56
2019-01-19T01:02:19.803Z,101867.20
2019-01-19T01:05:03.232Z,101863.75
2019-01-19T01:07:43.422Z,101771.64
2019-01-19T01:10:15.005Z,101862.20
2019-01-19T01:12:55.886Z,101859.91
2019-01-19T01:15:39.627Z,101854.97
2019-01-19T01:18:11.179Z,101855.09
2019-01-19T01:20:42.864Z,101855.26
2019-01-19T01:23:32.722Z,101863.02
2019-01-19T01:26:07.240Z,101855.67
2019-01-19T01:28:38.771Z,101852.97
2019-01-19T01:31:16.011Z,101850.86
2019-01-19T01:33:53.238Z,101849.38
2019-01-19T01:36:45.886Z,101852.09
2019-01-19T01:39:29.276Z,101850.41
2019-01-19T01:42:09.468Z,101848.31
2019-01-19T01:44:50.001Z,101850.55
2019-01-19T01:48:06.059Z,101847.93
2019-01-19T01:50:43.534Z,101853.45
2019-01-19T01:53:15.110Z,101847.13
2019-01-19T01:55:43.425Z,101849.22
2019-01-19T01:58:15.332Z,101847.80
2019-01-19T02:00:55.934Z,101845.99
2019-01-19T02:03:48.297Z,101843.67
2019-01-19T02:06:23.027Z,101846.48
2019-01-19T02:09:04.788Z,101846.41
2019-01-19T02:11:36.424Z,101845.25
2019-01-19T02:14:10.675Z,101844.80
2019-01-19T02:16:50.819Z,101844.08
2019-01-19T02:19:28.381Z,101841.89
2019-01-19T02:22:12.065Z,101837.59
2019-01-19T02:24:55.838Z,101831.39
2019-01-19T02:27:42.384Z,101830.75
2019-01-19T02:30:30.342Z,101835.34
2019-01-19T02:33:21.284Z,101831.01
2019-01-19T02:36:01.933Z,101826.94
2019-01-19T02:38:56.161Z,101826.94
2019-01-19T02:41:53.131Z,101832.46
2019-01-19T02:44:33.648Z,101822.91
2019-01-19T02:47:29.182Z,101827.45
2019-01-19T02:50:07.346Z,101821.61
2019-01-19T02:52:57.095Z,101820.38
2019-01-19T02:55:46.418Z,101819.22
2019-01-19T02:58:36.018Z,101821.51
2019-01-19T03:01:10.715Z,101824.16
2019-01-19T03:03:54.218Z,101820.06
2019-01-19T03:06:31.609Z,101820.06
2019-01-19T03:09:09.202Z,101818.22
2019-01-19T03:11:55.895Z,101822.70
2019-01-19T03:14:57.306Z,101822.34
2019-01-19T03:17:43.646Z,101812.70
2019-01-19T03:20:35.945Z,101812.86
2019-01-19T03:23:10.243Z,101811.73
2019-01-19T03:26:06.701Z,101814.13
2019-01-19T03:28:50.316Z,101811.21
2019-01-19T03:31:50.299Z,101811.67
2019-01-19T03:34:27.375Z,101801.38
2019-01-19T03:37:31.938Z,101803.61
2019-01-19T03:40:03.650Z,101809.75
2019-01-19T03:42:44.020Z,101808.91
2019-01-19T03:45:43.621Z,101803.91
2019-01-19T03:48:20.313Z,101808.06
2019-01-19T03:50:54.611Z,101808.34
2019-01-19T03:53:48.902Z,101805.18
2019-01-19T03:56:32.160Z,101800.17
2019-01-19T03:59:12.731Z,101803.98
2019-01-19T04:01:53.135Z,101803.10
2019-01-19T04:04:30.600Z,101799.91
2019-01-19T04:07:02.180Z,101797.66
2019-01-19T04:09:51.525Z,101794.05
2019-01-19T04:12:23.153Z,101792.05
2019-01-19T04:15:18.110Z,101795.58
2019-01-19T04:17:55.405Z,101792.53
2019-01-19T04:20:44.849Z,101790.66
2019-01-19T04:23:13.173Z,101788.57
2019-01-19T04:25:44.740Z,101790.45
2019-01-19T04:28:14.654Z,101786.48
2019-01-19T04:30:42.955Z,101785.00
2019-01-19T04:33:11.333Z,101784.04
2019-01-19T04:35:39.643Z,101778.03
2019-01-19T04:38:07.945Z,101781.03
2019-01-19T04:40:36.425Z,101784.64
2019-01-19T04:43:04.763Z,101779.03
2019-01-19T04:45:33.176Z,101785.28
2019-01-19T04:48:01.526Z,101781.48
2019-01-19T04:50:31.056Z,101781.48
2019-01-19T04:52:59.421Z,101776.39
2019-01-19T04:55:27.787Z,101773.03
2019-01-19T04:57:56.084Z,101777.44
2019-01-19T05:00:24.377Z,101777.72
2019-01-19T05:02:52.677Z,101773.60
2019-01-19T05:05:21.064Z,101767.91
2019-01-19T05:07:49.367Z,101761.50
2019-01-19T05:10:17.743Z,101762.50
2019-01-19T05:12:46.089Z,101763.95
2019-01-19T05:15:17.396Z,101763.39
2019-01-19T05:17:46.944Z,101762.70
2019-01-19T05:20:15.484Z,101760.42
2019-01-19T05:22:43.902Z,101761.30
2019-01-19T05:25:13.508Z,101757.98
2019-01-19T05:27:42.194Z,101758.61
2019-01-19T05:30:13.793Z,101763.18
2019-01-19T05:32:42.185Z,101758.53
2019-01-19T05:35:10.664Z,101757.61
2019-01-19T05:37:38.950Z,101758.41
2019-01-19T05:40:10.263Z,101753.33
2019-01-19T05:42:38.632Z,101756.92
2019-01-19T05:45:10.304Z,101762.57
2019-01-19T05:47:38.579Z,101757.61
2019-01-19T05:50:13.058Z,101760.53
2019-01-19T05:52:41.429Z,101751.80
2019-01-19T05:55:09.736Z,101758.73
2019-01-19T05:57:38.046Z,101758.95
2019-01-19T06:00:17.758Z,101754.91
2019-01-19T06:02:46.049Z,101757.12
2019-01-19T06:05:14.332Z,101760.00
2019-01-19T06:07:42.734Z,101754.16
2019-01-19T06:10:14.556Z,101758.39
2019-01-19T06:12:42.956Z,101754.70
2019-01-19T06:15:13.641Z,101761.50
2019-01-19T06:17:42.770Z,101762.88
2019-01-19T06:20:14.014Z,101761.95
2019-01-19T06:22:43.012Z,101766.55
2019-01-19T06:25:14.756Z,101762.59
2019-01-19T06:27:43.142Z,101760.43
2019-01-19T06:30:17.851Z,101765.02
2019-01-19T06:32:46.170Z,101761.39
2019-01-19T06:35:14.566Z,101757.31
2019-01-19T06:37:42.905Z,101757.16
2019-01-19T06:40:16.910Z,101753.77
2019-01-19T06:42:45.269Z,101764.95
2019-01-19T06:45:19.469Z,101758.22
2019-01-19T06:47:47.820Z,101751.16
2019-01-19T06:50:17.593Z,101752.34
2019-01-19T06:52:45.891Z,101758.84
2019-01-19T06:55:20.390Z,101759.81
2019-01-19T06:57:48.694Z,101758.45
2019-01-19T07:00:18.841Z,101758.58
2019-01-19T07:02:47.213Z,101759.72
2019-01-19T07:05:15.575Z,101757.22
2019-01-19T07:07:43.945Z,101751.73
2019-01-19T07:10:17.916Z,101753.41
2019-01-19T07:12:46.281Z,101755.01
2019-01-19T07:15:15.700Z,101751.92
2019-01-19T07:17:43.975Z,101751.53
2019-01-19T07:20:21.264Z,101754.64
2019-01-19T07:22:49.556Z,101764.81
2019-01-19T07:25:17.856Z,101759.05
2019-01-19T07:27:46.135Z,101762.88
2019-01-19T07:30:17.357Z,101766.30
2019-01-19T07:32:46.796Z,101761.98
2019-01-19T07:35:16.191Z,101757.17
2019-01-19T07:37:44.499Z,101756.42
2019-01-19T07:40:18.293Z,101757.83
2019-01-19T07:42:49.173Z,101753.59
2019-01-19T07:45:17.450Z,101760.20
2019-01-19T07:47:45.910Z,101752.97
2019-01-19T07:50:17.489Z,101666.98
2019-01-19T07:53:03.158Z,101759.42
2019-01-19T07:55:31.615Z,101774.52
2019-01-19T07:57:59.905Z,101763.87
2019-01-19T08:00:33.871Z,101764.34
2019-01-19T08:03:02.208Z,101765.37
2019-01-19T08:05:30.596Z,101768.38
2019-01-19T08:07:58.974Z,101763.39
2019-01-19T08:10:27.489Z,101764.37
2019-01-19T08:12:55.801Z,101768.31
2019-01-19T08:15:29.557Z,101770.09
2019-01-19T08:17:58.007Z,101766.79
2019-01-19T08:20:26.488Z,101769.00
2019-01-19T08:22:54.794Z,101766.78
2019-01-19T08:25:23.135Z,101769.41
2019-01-19T08:27:51.505Z,101770.14
2019-01-19T08:30:25.864Z,101764.31
2019-01-19T08:32:54.276Z,101774.22
2019-01-19T08:35:24.603Z,101776.44
2019-01-19T08:37:54.835Z,101778.17
2019-01-19T08:40:32.054Z,101773.93
2019-01-19T08:43:14.380Z,101776.63
2019-01-19T08:45:43.281Z,101769.34
2019-01-19T08:48:11.867Z,101771.86
2019-01-19T08:50:40.647Z,101774.16
2019-01-19T08:53:09.119Z,101775.25
2019-01-19T08:55:37.507Z,101770.09
2019-01-19T08:58:05.941Z,101775.05
2019-01-19T09:00:34.314Z,101777.59
2019-01-19T09:03:02.587Z,101778.30
2019-01-19T09:05:30.998Z,101779.98
2019-01-19T09:07:59.345Z,101785.78
2019-01-19T09:10:27.744Z,101785.78
2019-01-19T09:12:56.283Z,101787.11
2019-01-19T09:15:26.167Z,101789.20
2019-01-19T09:17:54.506Z,101778.66
2019-01-19T09:20:22.894Z,101776.89
2019-01-19T09:22:52.891Z,101780.05
2019-01-19T09:25:21.430Z,101773.66
2019-01-19T09:27:51.416Z,101771.52
2019-01-19T09:30:23.145Z,101772.65
2019-01-19T09:32:53.446Z,101763.98
2019-01-19T09:35:21.838Z,101776.11
2019-01-19T09:37:50.452Z,101777.13
2019-01-19T09:40:19.687Z,101778.19
2019-01-19T09:42:48.066Z,101776.17
2019-01-19T09:45:23.568Z,101784.92
2019-01-19T09:47:52.085Z,101776.63
2019-01-19T09:50:23.590Z,101772.65
2019-01-19T09:52:51.845Z,101773.50
2019-01-19T09:55:20.215Z,101770.52
2019-01-19T09:57:49.317Z,101778.20
2019-01-19T10:00:35.488Z,101768.26
2019-01-19T10:02:58.589Z,101766.58
2019-01-19T10:05:28.328Z,101763.35
2019-01-19T10:07:56.692Z,101764.20
2019-01-19T10:10:25.159Z,101764.69
2019-01-19T10:12:53.491Z,101762.88
2019-01-19T10:15:22.460Z,101764.34
2019-01-19T10:17:50.831Z,101766.02
2019-01-19T10:20:25.665Z,101767.52
2019-01-19T10:22:54.055Z,101768.33
2019-01-19T10:25:22.388Z,101770.00
2019-01-19T10:27:50.815Z,101768.33
2019-01-19T10:30:21.959Z,101772.66
2019-01-19T10:32:50.239Z,101772.04
2019-01-19T10:35:19.511Z,101770.03
2019-01-19T10:37:47.892Z,101770.03
2019-01-19T10:40:17.607Z,101767.86
2019-01-19T10:42:45.980Z,101764.37
2019-01-19T10:45:26.098Z,101758.89
2019-01-19T10:47:54.411Z,101754.89
2019-01-19T10:50:22.672Z,101753.73
2019-01-19T10:52:51.124Z,101754.90
2019-01-19T10:55:21.760Z,101748.22
2019-01-19T10:57:50.074Z,101748.70
2019-01-19T11:00:29.975Z,101745.72
2019-01-19T11:02:59.206Z,101745.87
2019-01-19T11:05:28.166Z,101739.66
2019-01-19T11:08:03.168Z,101739.80
2019-01-19T11:10:32.833Z,101740.67
2019-01-19T11:13:01.168Z,101735.34
2019-01-19T11:15:29.504Z,101731.85
2019-01-19T11:17:57.778Z,101733.18
2019-01-19T11:20:30.985Z,101725.49
2019-01-19T11:23:01.494Z,101726.67
2019-01-19T11:25:30.842Z,101722.53
2019-01-19T11:27:59.126Z,101724.81
2019-01-19T11:30:30.143Z,101718.69
2019-01-19T11:32:58.637Z,101723.21
2019-01-19T11:35:26.911Z,101718.69
2019-01-19T11:37:55.212Z,101713.17
2019-01-19T11:40:29.683Z,101705.02
2019-01-19T11:42:58.327Z,101706.46
2019-01-19T11:45:26.686Z,101704.48
2019-01-19T11:47:55.107Z,101699.69
2019-01-19T11:50:23.381Z,101692.05
2019-01-19T11:52:51.731Z,101691.94
2019-01-19T11:55:21.494Z,101691.36
2019-01-19T11:57:52.758Z,101688.50
2019-01-19T12:00:27.310Z,101681.84
2019-01-19T12:02:55.576Z,101675.86
2019-01-19T12:05:23.956Z,101675.71
2019-01-19T12:07:52.324Z,101674.93
2019-01-19T12:10:23.385Z,101675.07
2019-01-19T12:12:51.662Z,101672.02
2019-01-19T12:15:20.109Z,101671.13
2019-01-19T12:17:48.460Z,101663.63
2019-01-19T12:20:35.167Z,101666.91
2019-01-19T12:23:03.460Z,101663.91
2019-01-19T12:25:51.786Z,101664.59
2019-01-19T12:28:21.309Z,101654.85
2019-01-19T12:30:51.416Z,101657.01
2019-01-19T12:33:19.952Z,101656.80
2019-01-19T12:35:48.469Z,101655.67
2019-01-19T12:38:16.814Z,101650.98
2019-01-19T12:40:45.762Z,101649.34
2019-01-19T12:43:16.720Z,101646.27
2019-01-19T12:45:48.508Z,101643.79
2019-01-19T12:48:22.550Z,101637.91
2019-01-19T12:50:52.113Z,101633.32
2019-01-19T12:53:20.622Z,101633.95
2019-01-19T12:55:49.040Z,101629.34
2019-01-19T12:58:17.906Z,101626.83
2019-01-19T13:00:46.350Z,101621.47
2019-01-19T13:03:14.881Z,101618.78
2019-01-19T13:05:46.587Z,101630.45
2019-01-19T13:08:20.864Z,101615.00
2019-01-19T13:11:01.879Z,101612.58
2019-01-19T13:13:30.407Z,101599.48
2019-01-19T13:16:13.757Z,101602.41
2019-01-19T13:18:45.351Z,101597.79
2019-01-19T13:21:36.375Z,101586.79
2019-01-19T13:24:13.505Z,101593.71
2019-01-19T13:27:06.199Z,101592.34
2019-01-19T13:29:58.866Z,101582.87
2019-01-19T13:32:33.182Z,101583.51
2019-01-19T13:35:33.384Z,101580.58
2019-01-19T13:38:19.823Z,101582.41
2019-01-19T13:41:13.415Z,101579.15
2019-01-19T13:44:00.362Z,101574.65
2019-01-19T13:46:52.341Z,101571.28
2019-01-19T13:49:46.212Z,101568.34
2019-01-19T13:52:39.811Z,101569.56
2019-01-19T13:55:27.937Z,101561.91
2019-01-19T13:58:17.172Z,101563.64
2019-01-19T14:01:03.453Z,101564.61
2019-01-19T14:03:37.840Z,101563.97
2019-01-19T14:06:17.757Z,101564.55
2019-01-19T14:08:58.029Z,101562.45
2019-01-19T14:11:46.203Z,101561.27
2019-01-19T14:14:45.670Z,101561.92
2019-01-19T14:17:22.958Z,101564.66
2019-01-19T14:20:12.847Z,101559.92
2019-01-19T14:22:50.106Z,101565.28
2019-01-19T14:25:36.506Z,101550.81
2019-01-19T14:28:28.894Z,101552.02
2019-01-19T14:31:16.705Z,101555.34
2019-01-19T14:34:08.955Z,101554.69
2019-01-19T14:36:46.479Z,101550.59
2019-01-19T14:39:34.377Z,101548.40
2019-01-19T14:42:17.244Z,101546.59
2019-01-19T14:44:54.721Z,101544.28
2019-01-19T14:47:29.009Z,101544.65
2019-01-19T14:50:00.595Z,101539.67
2019-01-19T14:52:32.182Z,101480.14
2019-01-19T14:55:09.457Z,101540.57
2019-01-19T14:57:46.765Z,101536.72
2019-01-19T15:00:34.784Z,101533.72
2019-01-19T15:03:21.049Z,101538.42
2019-01-19T15:06:11.912Z,101533.62
2019-01-19T15:08:46.962Z,101538.06
2019-01-19T15:12:02.800Z,101528.19
2019-01-19T15:14:57.758Z,101528.05
2019-01-19T15:17:49.794Z,101524.75
2019-01-19T15:20:44.954Z,101523.28
2019-01-19T15:23:34.178Z,101529.98
2019-01-19T15:26:25.885Z,101523.98
2019-01-19T15:29:13.457Z,101525.85
2019-01-19T15:32:12.402Z,101529.01
2019-01-19T15:34:53.582Z,101521.37
2019-01-19T15:37:28.554Z,101521.91
2019-01-19T15:40:20.084Z,101524.91
2019-01-19T15:42:59.125Z,101520.30
2019-01-19T15:45:59.086Z,101525.27
2019-01-19T15:48:48.567Z,101518.66
2019-01-19T15:51:46.159Z,101518.35
2019-01-19T15:54:38.857Z,101515.88
2019-01-19T15:57:39.791Z,101510.75
2019-01-19T16:00:54.626Z,101514.24
2019-01-19T16:03:46.996Z,101510.93
2019-01-19T16:06:48.860Z,101513.44
2019-01-19T16:09:50.617Z,101517.42
2019-01-19T16:12:55.780Z,101511.94
2019-01-19T16:15:47.111Z,101507.83
2019-01-19T16:18:43.366Z,101504.14
2019-01-19T16:21:42.738Z,101505.00
2019-01-19T16:24:26.662Z,101508.31
2019-01-19T16:27:16.061Z,101505.14
2019-01-19T16:29:47.711Z,101506.67
2019-01-19T16:32:34.349Z,101510.48
2019-01-19T16:35:15.193Z,101510.30
2019-01-19T16:37:46.789Z,101508.00
2019-01-19T16:40:21.026Z,101512.13
2019-01-19T16:43:07.474Z,101512.48
2019-01-19T16:45:55.730Z,101511.64
2019-01-19T16:48:36.378Z,101508.64
2019-01-19T16:51:23.072Z,101511.64
2019-01-19T16:54:01.103Z,101510.81
2019-01-19T16:56:38.785Z,101511.47
2019-01-19T16:59:16.228Z,101518.60
2019-01-19T17:02:02.818Z,101505.98
2019-01-19T17:04:37.117Z,101511.80
2019-01-19T17:07:26.940Z,101510.79
2019-01-19T17:10:01.116Z,101507.48
2019-01-19T17:12:38.785Z,101516.94
2019-01-19T17:15:26.696Z,101511.94
2019-01-19T17:18:13.471Z,101509.31
2019-01-19T17:20:57.154Z,101507.64
2019-01-19T17:23:37.996Z,101500.19
2019-01-19T17:26:21.597Z,101500.81
2019-01-19T17:28:53.174Z,101508.28
2019-01-19T17:31:33.434Z,101502.13
2019-01-19T17:34:05.139Z,101504.77
2019-01-19T17:36:54.635Z,101506.87
2019-01-19T17:39:28.938Z,101508.05
2019-01-19T17:42:27.891Z,101497.25
2019-01-19T17:45:11.344Z,101503.09
2019-01-19T17:47:51.860Z,101500.95
2019-01-19T17:50:44.596Z,101507.53
2019-01-19T17:53:22.386Z,101502.55
2019-01-19T17:56:10.107Z,101503.20
2019-01-19T17:59:14.418Z,101495.41
2019-01-19T18:01:51.864Z,101494.73
2019-01-19T18:04:32.628Z,101493.75
2019-01-19T18:07:15.965Z,101492.09
2019-01-19T18:10:16.180Z,101488.28
2019-01-19T18:12:59.860Z,101489.10
2019-01-19T18:16:01.503Z,101495.43
2019-01-19T18:18:51.174Z,101490.39
2019-01-19T18:21:31.721Z,101485.43
2019-01-19T18:24:18.124Z,101489.90
2019-01-19T18:26:58.554Z,101491.52
2019-01-19T18:29:48.112Z,101486.86
2019-01-19T18:32:31.433Z,101489.83
2019-01-19T18:35:21.303Z,101494.78
2019-01-19T18:37:57.083Z,101510.34
2019-01-19T18:40:40.337Z,101501.02
2019-01-19T18:43:36.923Z,101494.70
2019-01-19T18:46:08.687Z,101495.19
2019-01-19T18:49:07.303Z,101496.45
2019-01-19T18:51:58.246Z,101495.13
2019-01-19T18:54:46.322Z,101492.16
2019-01-19T18:57:34.248Z,101496.24
2019-01-19T19:00:08.556Z,101500.11
2019-01-19T19:02:42.866Z,101500.11
2019-01-19T19:05:26.279Z,101500.05
2019-01-19T19:08:07.387Z,101491.17
2019-01-19T19:10:47.996Z,101497.86
2019-01-19T19:13:22.500Z,101492.13
2019-01-19T19:16:05.896Z,101496.70
2019-01-19T19:19:01.412Z,101492.16
2019-01-19T19:21:44.999Z,101503.52
2019-01-19T19:24:34.638Z,101494.16
2019-01-19T19:27:31.808Z,101497.41
2019-01-19T19:30:09.129Z,101498.91
2019-01-19T19:32:49.380Z,101503.98
2019-01-19T19:35:42.368Z,101500.31
2019-01-19T19:38:33.219Z,101498.44
2019-01-19T19:41:19.941Z,101501.52
2019-01-19T19:44:15.413Z,101500.26
2019-01-19T19:47:08.234Z,101499.52
2019-01-19T19:49:39.823Z,101496.97
2019-01-19T19:52:08.238Z,101489.78
2019-01-19T19:54:36.559Z,101503.61
2019-01-19T19:57:05.070Z,101503.00
2019-01-19T19:59:34.150Z,101502.58
2019-01-19T20:02:02.506Z,101497.16
2019-01-19T20:04:31.171Z,101502.16
2019-01-19T20:07:06.387Z,101498.78
2019-01-19T20:09:34.748Z,101503.22
2019-01-19T20:12:04.698Z,101506.35
2019-01-19T20:14:33.117Z,101509.10
2019-01-19T20:17:01.595Z,101509.56
2019-01-19T20:19:30.029Z,101512.78
2019-01-19T20:21:58.400Z,101503.64
2019-01-19T20:24:26.829Z,101506.89
2019-01-19T20:26:56.355Z,101500.29
2019-01-19T20:29:24.632Z,101504.70
2019-01-19T20:31:53.264Z,101505.67
2019-01-19T20:34:21.549Z,101504.09
2019-01-19T20:36:49.822Z,101502.42
2019-01-19T20:39:18.250Z,101501.94
2019-01-19T20:41:46.581Z,101506.83
2019-01-19T20:44:14.882Z,101500.03
2019-01-19T20:46:43.279Z,101502.87
2019-01-19T20:49:11.672Z,101500.65
2019-01-19T20:51:40.903Z,101494.98
2019-01-19T20:54:09.235Z,101505.70
2019-01-19T20:56:37.621Z,101502.16
2019-01-19T20:59:05.879Z,101505.92
2019-01-19T21:01:34.265Z,101504.95
2019-01-19T21:04:02.625Z,101498.00
2019-01-19T21:06:31.056Z,101509.40
2019-01-19T21:08:59.500Z,101501.89
2019-01-19T21:11:27.831Z,101509.46
2019-01-19T21:13:56.269Z,101555.63
2019-01-19T21:16:24.693Z,101510.39
2019-01-19T21:18:53.123Z,101504.29
2019-01-19T21:21:21.499Z,101502.93
2019-01-19T21:23:50.041Z,101507.17
2019-01-19T21:26:18.594Z,101509.73
2019-01-19T21:28:46.946Z,101508.22
2019-01-19T21:31:15.408Z,101509.73
2019-01-19T21:33:43.781Z,101514.53
2019-01-19T21:36:12.048Z,101521.70
2019-01-19T21:38:40.423Z,101515.98
2019-01-19T21:41:08.694Z,101517.66
2019-01-19T21:43:37.031Z,101515.46
2019-01-19T21:46:05.294Z,101518.15
2019-01-19T21:48:33.656Z,101513.15
2019-01-19T21:51:01.968Z,101509.34
2019-01-19T21:53:30.451Z,101513.15
2019-01-19T21:55:58.826Z,101506.56
2019-01-19T21:58:27.197Z,101511.59
2019-01-19T22:00:55.630Z,101504.56
2019-01-19T22:03:24.030Z,101507.35
2019-01-19T22:05:52.380Z,101505.95
2019-01-19T22:08:20.803Z,101508.72
2019-01-19T22:10:49.237Z,101509.34
2019-01-19T22:13:19.067Z,101505.67
2019-01-19T22:15:47.483Z,101501.72
2019-01-19T22:18:15.764Z,101499.35
2019-01-19T22:20:44.174Z,101497.95
2019-01-19T22:23:12.528Z,101497.34
2019-01-19T22:25:40.901Z,101500.33
2019-01-19T22:28:09.215Z,101497.41
2019-01-19T22:30:37.579Z,101507.23
2019-01-19T22:33:06.585Z,101500.16
2019-01-19T22:35:39.599Z,101498.92
2019-01-19T22:38:14.972Z,101504.76
2019-01-19T22:40:53.601Z,101500.81
2019-01-19T22:43:18.812Z,101502.25
2019-01-19T22:45:49.080Z,101506.35
2019-01-19T22:48:22.262Z,101508.78
2019-01-19T22:50:50.712Z,101511.70
2019-01-19T22:53:19.121Z,101510.50
2019-01-19T22:55:47.672Z,101507.77
2019-01-19T22:58:17.409Z,101505.14
2019-01-19T23:01:02.648Z,101512.84
2019-01-19T23:03:32.780Z,101517.98
2019-01-19T23:06:01.096Z,101519.70
2019-01-19T23:08:29.397Z,101509.02
2019-01-19T23:11:01.362Z,101514.25
2019-01-19T23:13:27.895Z,101512.91
2019-01-19T23:15:56.220Z,101511.86
2019-01-19T23:18:24.599Z,101517.23
2019-01-19T23:20:52.863Z,101520.04
2019-01-19T23:23:21.185Z,101520.52
2019-01-19T23:25:49.517Z,101521.47
2019-01-19T23:28:17.813Z,101521.93
2019-01-19T23:30:46.284Z,101513.88
2019-01-19T23:33:14.756Z,101512.45
2019-01-19T23:35:43.023Z,101518.88
2019-01-19T23:38:11.416Z,101513.88
2019-01-19T23:40:39.819Z,101512.83
2019-01-19T23:43:08.120Z,101516.20
2019-01-19T23:45:36.594Z,101511.45
2019-01-19T23:48:05.106Z,101505.98
2019-01-19T23:50:33.499Z,101501.61
2019-01-19T23:53:02.988Z,101509.30
2019-01-19T23:55:31.234Z,101489.86
2019-01-19T23:57:59.654Z,101514.25
